sensor_id;sensor_type;location;lat;lon;timestamp;pressure;altitude;pressure_sealevel;temperature;humidity
15678;BME280;7939;50.814;6.368;2023-04-25T00:01:15;99346.97;;;14.07;54.18
15678;BME280;7939;50.814;6.368;2023-04-25T00:03:41;99344.44;;;14.05;54.15
15678;BME280;7939;50.814;6.368;2023-04-25T00:06:09;99345.31;;;14.04;54.24
15678;BME280;7939;50.814;6.368;2023-04-25T00:08:36;99345.38;;;14.02;54.00
15678;BME280;7939;50.814;6.368;2023-04-25T00:11:02;99349.63;;;14.03;54.38
15678;BME280;7939;50.814;6.368;2023-04-25T00:13:29;99354.81;;;14.02;53.91
15678;BME280;7939;50.814;6.368;2023-04-25T00:15:55;99342.81;;;14.01;54.09
15678;BME280;7939;50.814;6.368;2023-04-25T00:18:23;99348.78;;;14.01;54.35
15678;BME280;7939;50.814;6.368;2023-04-25T00:20:50;99350.56;;;13.99;53.61
15678;BME280;7939;50.814;6.368;2023-04-25T00:23:18;99350.59;;;13.98;54.52
15678;BME280;7939;50.814;6.368;2023-04-25T00:25:45;99354.03;;;13.97;54.38
15678;BME280;7939;50.814;6.368;2023-04-25T00:28:12;99350.63;;;13.95;54.41
15678;BME280;7939;50.814;6.368;2023-04-25T00:30:38;99345.50;;;13.95;53.68
15678;BME280;7939;50.814;6.368;2023-04-25T00:33:05;99351.53;;;13.94;54.47
15678;BME280;7939;50.814;6.368;2023-04-25T00:35:32;99349.84;;;13.93;53.96
15678;BME280;7939;50.814;6.368;2023-04-25T00:37:59;99351.56;;;13.92;54.30
15678;BME280;7939;50.814;6.368;2023-04-25T00:40:27;99351.59;;;13.91;54.06
15678;BME280;7939;50.814;6.368;2023-04-25T00:42:54;99355.91;;;13.90;54.84
15678;BME280;7939;50.814;6.368;2023-04-25T00:45:21;99351.63;;;13.89;54.44
15678;BME280;7939;50.814;6.368;2023-04-25T00:47:47;99350.75;;;13.89;54.74
15678;BME280;7939;50.814;6.368;2023-04-25T00:50:14;99356.78;;;13.89;54.83
15678;BME280;7939;50.814;6.368;2023-04-25T00:52:43;99360.22;;;13.87;54.15
15678;BME280;7939;50.814;6.368;2023-04-25T00:55:10;99362.84;;;13.85;54.15
15678;BME280;7939;50.814;6.368;2023-04-25T00:57:39;99357.69;;;13.85;54.90
15678;BME280;7939;50.814;6.368;2023-04-25T01:00:07;99356.03;;;13.84;54.28
15678;BME280;7939;50.814;6.368;2023-04-25T01:02:36;99355.16;;;13.84;54.15
15678;BME280;7939;50.814;6.368;2023-04-25T01:05:04;99355.19;;;13.82;54.27
15678;BME280;7939;50.814;6.368;2023-04-25T01:07:30;99356.06;;;13.81;54.62
15678;BME280;7939;50.814;6.368;2023-04-25T01:09:57;99355.22;;;13.81;54.30
15678;BME280;7939;50.814;6.368;2023-04-25T01:12:24;99362.91;;;13.81;54.94
15678;BME280;7939;50.814;6.368;2023-04-25T01:14:52;99361.22;;;13.80;54.01
15678;BME280;7939;50.814;6.368;2023-04-25T01:17:19;99364.69;;;13.79;55.02
15678;BME280;7939;50.814;6.368;2023-04-25T01:19:46;99363.84;;;13.78;54.53
15678;BME280;7939;50.814;6.368;2023-04-25T01:22:15;99365.56;;;13.76;54.50
15678;BME280;7939;50.814;6.368;2023-04-25T01:24:42;99362.16;;;13.77;54.23
15678;BME280;7939;50.814;6.368;2023-04-25T01:27:09;99363.88;;;13.75;55.33
15678;BME280;7939;50.814;6.368;2023-04-25T01:29:36;99369.88;;;13.75;55.18
15678;BME280;7939;50.814;6.368;2023-04-25T01:32:03;99375.03;;;13.74;54.78
15678;BME280;7939;50.814;6.368;2023-04-25T01:34:30;99375.03;;;13.74;55.36
15678;BME280;7939;50.814;6.368;2023-04-25T01:36:59;99375.03;;;13.74;55.30
15678;BME280;7939;50.814;6.368;2023-04-25T01:39:27;99373.34;;;13.73;55.20
15678;BME280;7939;50.814;6.368;2023-04-25T01:41:54;99377.66;;;13.72;54.77
15678;BME280;7939;50.814;6.368;2023-04-25T01:44:21;99384.50;;;13.72;55.34
15678;BME280;7939;50.814;6.368;2023-04-25T01:46:48;99375.97;;;13.70;55.25
15678;BME280;7939;50.814;6.368;2023-04-25T01:49:14;99378.53;;;13.70;55.04
15678;BME280;7939;50.814;6.368;2023-04-25T01:51:41;99385.38;;;13.69;55.30
15678;BME280;7939;50.814;6.368;2023-04-25T01:54:08;99389.69;;;13.69;55.34
15678;BME280;7939;50.814;6.368;2023-04-25T01:56:38;99385.44;;;13.68;55.23
15678;BME280;7939;50.814;6.368;2023-04-25T01:59:05;99382.84;;;13.68;55.09
15678;BME280;7939;50.814;6.368;2023-04-25T02:01:32;99387.16;;;13.67;54.67
15678;BME280;7939;50.814;6.368;2023-04-25T02:03:58;99388.88;;;13.67;54.38
15678;BME280;7939;50.814;6.368;2023-04-25T02:06:25;99390.59;;;13.66;54.33
15678;BME280;7939;50.814;6.368;2023-04-25T02:08:51;99381.22;;;13.65;55.03
15678;BME280;7939;50.814;6.368;2023-04-25T02:11:18;99382.06;;;13.66;54.72
15678;BME280;7939;50.814;6.368;2023-04-25T02:13:46;99388.91;;;13.65;54.97
15678;BME280;7939;50.814;6.368;2023-04-25T02:16:12;99389.78;;;13.64;55.14
15678;BME280;7939;50.814;6.368;2023-04-25T02:18:39;99382.94;;;13.65;54.46
15678;BME280;7939;50.814;6.368;2023-04-25T02:21:06;99390.63;;;13.65;54.97
15678;BME280;7939;50.814;6.368;2023-04-25T02:23:32;99382.09;;;13.63;54.49
15678;BME280;7939;50.814;6.368;2023-04-25T02:25:59;99395.81;;;13.62;54.69
15678;BME280;7939;50.814;6.368;2023-04-25T02:28:25;99386.38;;;13.62;55.19
15678;BME280;7939;50.814;6.368;2023-04-25T02:30:53;99393.25;;;13.62;55.49
15678;BME280;7939;50.814;6.368;2023-04-25T02:33:20;99383.81;;;13.62;55.38
15678;BME280;7939;50.814;6.368;2023-04-25T02:35:47;99386.41;;;13.61;54.86
15678;BME280;7939;50.814;6.368;2023-04-25T02:38:13;99382.16;;;13.60;54.41
15678;BME280;7939;50.814;6.368;2023-04-25T02:40:40;99383.88;;;13.59;54.23
15678;BME280;7939;50.814;6.368;2023-04-25T02:43:07;99383.94;;;13.58;55.70
15678;BME280;7939;50.814;6.368;2023-04-25T02:45:34;99379.63;;;13.58;55.14
15678;BME280;7939;50.814;6.368;2023-04-25T02:48:02;99378.84;;;13.55;54.60
15678;BME280;7939;50.814;6.368;2023-04-25T02:50:28;99378.03;;;13.53;54.17
15678;BME280;7939;50.814;6.368;2023-04-25T02:52:55;99384.88;;;13.52;55.11
15678;BME280;7939;50.814;6.368;2023-04-25T02:55:21;99380.63;;;13.49;54.09
15678;BME280;7939;50.814;6.368;2023-04-25T02:57:48;99384.13;;;13.47;55.19
15678;BME280;7939;50.814;6.368;2023-04-25T03:00:15;99383.22;;;13.48;55.13
15678;BME280;7939;50.814;6.368;2023-04-25T03:02:42;99386.72;;;13.44;54.08
15678;BME280;7939;50.814;6.368;2023-04-25T03:05:10;99381.63;;;13.42;54.43
15678;BME280;7939;50.814;6.368;2023-04-25T03:07:37;99384.16;;;13.44;54.56
15678;BME280;7939;50.814;6.368;2023-04-25T03:10:05;99391.00;;;13.43;54.49
15678;BME280;7939;50.814;6.368;2023-04-25T03:12:32;99379.88;;;13.44;55.07
15678;BME280;7939;50.814;6.368;2023-04-25T03:14:58;99384.19;;;13.42;54.92
15678;BME280;7939;50.814;6.368;2023-04-25T03:17:25;99389.28;;;13.44;54.73
15678;BME280;7939;50.814;6.368;2023-04-25T03:19:51;99392.72;;;13.43;54.87
15678;BME280;7939;50.814;6.368;2023-04-25T03:22:20;99395.28;;;13.43;55.21
15678;BME280;7939;50.814;6.368;2023-04-25T03:24:46;99397.00;;;13.44;55.21
15678;BME280;7939;50.814;6.368;2023-04-25T03:27:13;99391.84;;;13.44;54.57
15678;BME280;7939;50.814;6.368;2023-04-25T03:29:40;99396.16;;;13.43;55.30
15678;BME280;7939;50.814;6.368;2023-04-25T03:32:06;99392.75;;;13.41;55.46
15678;BME280;7939;50.814;6.368;2023-04-25T03:34:33;99391.97;;;13.39;54.50
15678;BME280;7939;50.814;6.368;2023-04-25T03:37:00;99396.25;;;13.39;55.27
15678;BME280;7939;50.814;6.368;2023-04-25T03:39:28;99385.13;;;13.37;54.36
15678;BME280;7939;50.814;6.368;2023-04-25T03:41:55;99397.13;;;13.36;55.09
15678;BME280;7939;50.814;6.368;2023-04-25T03:44:21;99392.88;;;13.35;54.96
15678;BME280;7939;50.814;6.368;2023-04-25T03:46:49;99399.72;;;13.35;54.91
15678;BME280;7939;50.814;6.368;2023-04-25T03:49:16;99404.81;;;13.36;54.30
15678;BME280;7939;50.814;6.368;2023-04-25T03:51:43;99410.00;;;13.35;55.43
15678;BME280;7939;50.814;6.368;2023-04-25T03:54:09;99413.44;;;13.34;54.75
15678;BME280;7939;50.814;6.368;2023-04-25T03:56:37;99406.63;;;13.33;54.12
15678;BME280;7939;50.814;6.368;2023-04-25T03:59:03;99407.47;;;13.32;54.95
15678;BME280;7939;50.814;6.368;2023-04-25T04:01:30;99407.50;;;13.30;54.31
15678;BME280;7939;50.814;6.368;2023-04-25T04:03:57;99406.63;;;13.31;54.85
15678;BME280;7939;50.814;6.368;2023-04-25T04:06:23;99404.06;;;13.31;54.77
15678;BME280;7939;50.814;6.368;2023-04-25T04:08:50;99411.75;;;13.33;54.75
15678;BME280;7939;50.814;6.368;2023-04-25T04:11:17;99408.34;;;13.31;54.89
15678;BME280;7939;50.814;6.368;2023-04-25T04:13:45;99416.91;;;13.30;54.89
15678;BME280;7939;50.814;6.368;2023-04-25T04:16:12;99418.63;;;13.29;55.07
15678;BME280;7939;50.814;6.368;2023-04-25T04:18:39;99416.91;;;13.30;55.24
15678;BME280;7939;50.814;6.368;2023-04-25T04:21:05;99420.41;;;13.27;54.59
15678;BME280;7939;50.814;6.368;2023-04-25T04:23:32;99429.81;;;13.27;54.86
15678;BME280;7939;50.814;6.368;2023-04-25T04:25:59;99427.25;;;13.25;54.90
15678;BME280;7939;50.814;6.368;2023-04-25T04:28:26;99424.69;;;13.25;55.37
15678;BME280;7939;50.814;6.368;2023-04-25T04:30:54;99434.09;;;13.25;55.38
15678;BME280;7939;50.814;6.368;2023-04-25T04:33:21;99428.16;;;13.22;55.50
15678;BME280;7939;50.814;6.368;2023-04-25T04:35:49;99435.00;;;13.22;54.43
15678;BME280;7939;50.814;6.368;2023-04-25T04:38:17;99433.28;;;13.22;55.07
15678;BME280;7939;50.814;6.368;2023-04-25T04:40:45;99439.31;;;13.21;55.58
15678;BME280;7939;50.814;6.368;2023-04-25T04:43:11;99439.31;;;13.20;55.32
15678;BME280;7939;50.814;6.368;2023-04-25T04:45:38;99443.59;;;13.18;54.93
15678;BME280;7939;50.814;6.368;2023-04-25T04:48:07;99452.16;;;13.17;54.71
15678;BME280;7939;50.814;6.368;2023-04-25T04:50:33;99444.53;;;13.14;54.10
15678;BME280;7939;50.814;6.368;2023-04-25T04:53:01;99446.31;;;13.09;53.90
15678;BME280;7939;50.814;6.368;2023-04-25T04:55:28;99446.31;;;13.09;54.96
15678;BME280;7939;50.814;6.368;2023-04-25T04:57:55;99449.84;;;13.00;54.17
15678;BME280;7939;50.814;6.368;2023-04-25T05:00:21;99455.00;;;12.99;53.68
15678;BME280;7939;50.814;6.368;2023-04-25T05:02:48;99458.50;;;12.93;54.69
15678;BME280;7939;50.814;6.368;2023-04-25T05:05:16;99461.13;;;12.88;53.60
15678;BME280;7939;50.814;6.368;2023-04-25T05:07:42;99461.88;;;12.96;54.80
15678;BME280;7939;50.814;6.368;2023-04-25T05:10:09;99459.34;;;12.93;54.30
15678;BME280;7939;50.814;6.368;2023-04-25T05:12:36;99473.88;;;12.96;54.74
15678;BME280;7939;50.814;6.368;2023-04-25T05:15:03;99474.72;;;12.96;53.98
15678;BME280;7939;50.814;6.368;2023-04-25T05:17:30;99477.22;;;13.00;54.00
15678;BME280;7939;50.814;6.368;2023-04-25T05:19:57;99493.44;;;13.00;54.03
15678;BME280;7939;50.814;6.368;2023-04-25T05:22:25;99485.75;;;13.00;54.76
15678;BME280;7939;50.814;6.368;2023-04-25T05:24:52;99490.00;;;13.03;54.61
15678;BME280;7939;50.814;6.368;2023-04-25T05:27:19;99498.59;;;13.02;54.77
15678;BME280;7939;50.814;6.368;2023-04-25T05:29:46;99497.75;;;13.01;54.86
15678;BME280;7939;50.814;6.368;2023-04-25T05:32:12;99496.88;;;13.01;55.36
15678;BME280;7939;50.814;6.368;2023-04-25T05:34:39;99497.75;;;13.01;55.07
15678;BME280;7939;50.814;6.368;2023-04-25T05:37:07;99499.47;;;12.99;53.96
15678;BME280;7939;50.814;6.368;2023-04-25T05:39:35;99502.03;;;12.99;54.29
15678;BME280;7939;50.814;6.368;2023-04-25T05:42:01;99503.72;;;13.00;54.88
15678;BME280;7939;50.814;6.368;2023-04-25T05:44:29;99505.44;;;13.01;55.07
15678;BME280;7939;50.814;6.368;2023-04-25T05:46:56;99505.47;;;12.98;54.74
15678;BME280;7939;50.814;6.368;2023-04-25T05:49:22;99512.44;;;12.90;53.41
15678;BME280;7939;50.814;6.368;2023-04-25T05:51:49;99513.19;;;12.96;54.30
15678;BME280;7939;50.814;6.368;2023-04-25T05:54:15;99511.59;;;12.89;54.52
15678;BME280;7939;50.814;6.368;2023-04-25T05:56:43;99511.53;;;12.92;54.60
15678;BME280;7939;50.814;6.368;2023-04-25T05:59:09;99517.56;;;12.90;54.68
15678;BME280;7939;50.814;6.368;2023-04-25T06:01:36;99512.38;;;12.93;54.59
15678;BME280;7939;50.814;6.368;2023-04-25T06:04:03;99518.38;;;12.92;54.83
15678;BME280;7939;50.814;6.368;2023-04-25T06:06:30;99521.84;;;12.89;55.00
15678;BME280;7939;50.814;6.368;2023-04-25T06:08:57;99519.28;;;12.88;55.08
15678;BME280;7939;50.814;6.368;2023-04-25T06:11:23;99519.28;;;12.89;54.40
15678;BME280;7939;50.814;6.368;2023-04-25T06:13:51;99521.78;;;12.92;54.78
15678;BME280;7939;50.814;6.368;2023-04-25T06:16:18;99523.56;;;12.89;53.83
15678;BME280;7939;50.814;6.368;2023-04-25T06:18:44;99521.84;;;12.89;55.20
15678;BME280;7939;50.814;6.368;2023-04-25T06:21:11;99528.59;;;12.93;54.92
15678;BME280;7939;50.814;6.368;2023-04-25T06:23:37;99528.66;;;12.90;54.88
15678;BME280;7939;50.814;6.368;2023-04-25T06:26:04;99533.75;;;12.92;54.49
15678;BME280;7939;50.814;6.368;2023-04-25T06:28:31;99542.47;;;12.80;54.41
15678;BME280;7939;50.814;6.368;2023-04-25T06:30:59;99544.97;;;12.85;54.29
15678;BME280;7939;50.814;6.368;2023-04-25T06:33:26;99545.84;;;12.84;54.03
15678;BME280;7939;50.814;6.368;2023-04-25T06:35:52;99545.06;;;12.79;53.94
15678;BME280;7939;50.814;6.368;2023-04-25T06:38:19;99548.38;;;12.85;53.63
15678;BME280;7939;50.814;6.368;2023-04-25T06:40:45;99548.44;;;12.81;54.35
15678;BME280;7939;50.814;6.368;2023-04-25T06:43:12;99550.13;;;12.82;54.01
15678;BME280;7939;50.814;6.368;2023-04-25T06:45:39;99554.41;;;12.83;53.94
15678;BME280;7939;50.814;6.368;2023-04-25T06:48:07;99556.97;;;12.83;54.18
15678;BME280;7939;50.814;6.368;2023-04-25T06:50:33;99556.06;;;12.85;53.82
15678;BME280;7939;50.814;6.368;2023-04-25T06:53:00;99557.81;;;12.82;53.44
15678;BME280;7939;50.814;6.368;2023-04-25T06:55:27;99561.19;;;12.85;54.85
15678;BME280;7939;50.814;6.368;2023-04-25T06:57:54;99560.44;;;12.79;52.99
15678;BME280;7939;50.814;6.368;2023-04-25T07:00:21;99561.47;;;12.64;52.37
15678;BME280;7939;50.814;6.368;2023-04-25T07:02:47;99564.78;;;12.72;53.86
15678;BME280;7939;50.814;6.368;2023-04-25T07:05:15;99564.91;;;12.64;53.22
15678;BME280;7939;50.814;6.368;2023-04-25T07:07:42;99568.25;;;12.68;52.87
15678;BME280;7939;50.814;6.368;2023-04-25T07:10:09;99564.13;;;12.55;53.16
15678;BME280;7939;50.814;6.368;2023-04-25T07:12:35;99567.41;;;12.67;52.79
15678;BME280;7939;50.814;6.368;2023-04-25T07:15:03;99571.63;;;12.72;53.16
15678;BME280;7939;50.814;6.368;2023-04-25T07:17:32;99573.38;;;12.68;53.11
15678;BME280;7939;50.814;6.368;2023-04-25T07:19:59;99572.44;;;12.75;52.77
15678;BME280;7939;50.814;6.368;2023-04-25T07:22:27;99574.19;;;12.73;51.89
15678;BME280;7939;50.814;6.368;2023-04-25T07:24:53;99576.72;;;12.76;53.50
15678;BME280;7939;50.814;6.368;2023-04-25T07:27:20;99576.84;;;12.65;51.12
15678;BME280;7939;50.814;6.368;2023-04-25T07:29:46;99575.03;;;12.74;51.96
15678;BME280;7939;50.814;6.368;2023-04-25T07:32:13;99575.91;;;12.73;52.63
15678;BME280;7939;50.814;6.368;2023-04-25T07:34:40;99579.28;;;12.76;52.96
15678;BME280;7939;50.814;6.368;2023-04-25T07:37:06;99582.69;;;12.77;52.34
15678;BME280;7939;50.814;6.368;2023-04-25T07:39:34;99590.31;;;12.83;52.90
15678;BME280;7939;50.814;6.368;2023-04-25T07:42:02;99594.75;;;12.70;52.20
15678;BME280;7939;50.814;6.368;2023-04-25T07:44:29;99597.38;;;12.62;52.36
15678;BME280;7939;50.814;6.368;2023-04-25T07:46:56;99602.44;;;12.68;53.51
15678;BME280;7939;50.814;6.368;2023-04-25T07:49:23;99602.38;;;12.73;53.36
15678;BME280;7939;50.814;6.368;2023-04-25T07:51:50;99601.50;;;12.74;53.11
15678;BME280;7939;50.814;6.368;2023-04-25T07:54:16;99607.56;;;12.70;52.69
15678;BME280;7939;50.814;6.368;2023-04-25T07:56:44;99611.94;;;12.60;51.54
15678;BME280;7939;50.814;6.368;2023-04-25T07:59:11;99616.91;;;12.73;53.22
15678;BME280;7939;50.814;6.368;2023-04-25T08:01:38;99626.34;;;12.71;52.40
15678;BME280;7939;50.814;6.368;2023-04-25T08:04:05;99626.53;;;12.51;52.68
15678;BME280;7939;50.814;6.368;2023-04-25T08:06:32;99633.28;;;12.61;51.37
15678;BME280;7939;50.814;6.368;2023-04-25T08:08:58;99628.13;;;12.64;51.26
15678;BME280;7939;50.814;6.368;2023-04-25T08:11:25;99634.91;;;12.68;52.94
15678;BME280;7939;50.814;6.368;2023-04-25T08:13:52;99641.66;;;12.77;52.53
15678;BME280;7939;50.814;6.368;2023-04-25T08:16:19;99641.59;;;12.81;53.05
15678;BME280;7939;50.814;6.368;2023-04-25T08:18:47;99656.94;;;12.86;53.72
15678;BME280;7939;50.814;6.368;2023-04-25T08:21:13;99657.88;;;12.79;50.73
15678;BME280;7939;50.814;6.368;2023-04-25T08:23:40;99653.75;;;12.65;49.77
15678;BME280;7939;50.814;6.368;2023-04-25T08:26:07;99658.78;;;12.73;50.56
15678;BME280;7939;50.814;6.368;2023-04-25T08:28:33;99645.13;;;12.69;49.86
15678;BME280;7939;50.814;6.368;2023-04-25T08:31:01;99660.56;;;12.66;49.33
15678;BME280;7939;50.814;6.368;2023-04-25T08:33:28;99667.38;;;12.71;50.81
15678;BME280;7939;50.814;6.368;2023-04-25T08:35:55;99666.47;;;12.75;51.16
15678;BME280;7939;50.814;6.368;2023-04-25T08:38:22;99671.59;;;12.75;51.00
15678;BME280;7939;50.814;6.368;2023-04-25T08:40:50;99672.47;;;12.74;50.30
15678;BME280;7939;50.814;6.368;2023-04-25T08:43:18;99674.97;;;12.80;50.67
15678;BME280;7939;50.814;6.368;2023-04-25T08:46:05;99686.06;;;12.80;49.95
15678;BME280;7939;50.814;6.368;2023-04-25T08:48:51;99686.97;;;12.75;49.50
15678;BME280;7939;50.814;6.368;2023-04-25T08:51:22;99686.09;;;12.77;49.60
15678;BME280;7939;50.814;6.368;2023-04-25T08:53:51;99679.28;;;12.75;48.96
15678;BME280;7939;50.814;6.368;2023-04-25T08:56:18;99689.69;;;12.59;48.74
15678;BME280;7939;50.814;6.368;2023-04-25T08:58:47;99684.66;;;12.52;48.99
15678;BME280;7939;50.814;6.368;2023-04-25T09:01:16;99699.00;;;12.71;49.74
15678;BME280;7939;50.814;6.368;2023-04-25T09:03:44;99697.34;;;12.62;47.74
15678;BME280;7939;50.814;6.368;2023-04-25T09:06:12;99694.72;;;12.70;49.02
15678;BME280;7939;50.814;6.368;2023-04-25T09:08:39;99699.84;;;12.68;47.85
15678;BME280;7939;50.814;6.368;2023-04-25T09:11:06;99708.47;;;12.64;48.02
15678;BME280;7939;50.814;6.368;2023-04-25T09:13:32;99708.38;;;12.72;47.33
15678;BME280;7939;50.814;6.368;2023-04-25T09:15:59;99712.69;;;12.70;47.93
15678;BME280;7939;50.814;6.368;2023-04-25T09:18:28;99715.19;;;12.73;48.89
15678;BME280;7939;50.814;6.368;2023-04-25T09:20:56;99714.31;;;12.77;48.94
15678;BME280;7939;50.814;6.368;2023-04-25T09:23:24;99719.38;;;12.82;47.84
15678;BME280;7939;50.814;6.368;2023-04-25T09:25:52;99721.09;;;12.83;48.16
15678;BME280;7939;50.814;6.368;2023-04-25T09:28:23;99723.72;;;12.77;47.04
15678;BME280;7939;50.814;6.368;2023-04-25T09:30:54;99729.75;;;12.69;46.72
15678;BME280;7939;50.814;6.368;2023-04-25T09:33:28;99735.69;;;12.78;47.15
15678;BME280;7939;50.814;6.368;2023-04-25T09:36:02;99725.31;;;12.87;49.15
15678;BME280;7939;50.814;6.368;2023-04-25T09:38:30;99734.66;;;12.92;48.63
15678;BME280;7939;50.814;6.368;2023-04-25T09:40:56;99750.94;;;12.88;47.53
15678;BME280;7939;50.814;6.368;2023-04-25T09:43:24;99746.63;;;12.92;45.75
15678;BME280;7939;50.814;6.368;2023-04-25T09:45:53;99749.91;;;13.08;46.50
15678;BME280;7939;50.814;6.368;2023-04-25T09:48:23;99749.78;;;13.17;46.79
15678;BME280;7939;50.814;6.368;2023-04-25T09:51:05;99757.50;;;13.17;46.68
15678;BME280;7939;50.814;6.368;2023-04-25T09:53:32;99757.47;;;13.21;47.20
15678;BME280;7939;50.814;6.368;2023-04-25T09:55:59;99766.81;;;13.26;47.92
15678;BME280;7939;50.814;6.368;2023-04-25T09:58:29;99776.09;;;13.40;48.47
15678;BME280;7939;50.814;6.368;2023-04-25T10:00:59;99770.88;;;13.45;46.16
15678;BME280;7939;50.814;6.368;2023-04-25T10:03:29;99775.91;;;13.54;48.05
15678;BME280;7939;50.814;6.368;2023-04-25T10:05:57;99770.88;;;13.46;47.43
15678;BME280;7939;50.814;6.368;2023-04-25T10:08:29;99775.78;;;13.63;48.00
15678;BME280;7939;50.814;6.368;2023-04-25T10:11:00;99780.84;;;13.69;47.62
15678;BME280;7939;50.814;6.368;2023-04-25T10:13:27;99777.34;;;13.75;47.81
15678;BME280;7939;50.814;6.368;2023-04-25T10:15:57;99776.56;;;13.71;48.26
15678;BME280;7939;50.814;6.368;2023-04-25T10:18:24;99776.50;;;13.74;47.26
15678;BME280;7939;50.814;6.368;2023-04-25T10:20:51;99781.50;;;13.85;47.99
15678;BME280;7939;50.814;6.368;2023-04-25T10:23:18;99779.75;;;13.90;48.09
15678;BME280;7939;50.814;6.368;2023-04-25T10:25:46;99782.25;;;13.93;47.09
15678;BME280;7939;50.814;6.368;2023-04-25T10:28:13;99772.78;;;13.98;46.98
15678;BME280;7939;50.814;6.368;2023-04-25T10:30:56;99768.41;;;14.03;46.67
15678;BME280;7939;50.814;6.368;2023-04-25T10:33:30;99779.66;;;13.95;46.61
15678;BME280;7939;50.814;6.368;2023-04-25T10:35:58;99764.09;;;14.06;47.18
15678;BME280;7939;50.814;6.368;2023-04-25T10:38:25;99767.63;;;13.98;45.82
15678;BME280;7939;50.814;6.368;2023-04-25T10:41:04;99764.81;;;14.14;47.11
15678;BME280;7939;50.814;6.368;2023-04-25T10:43:35;99763.06;;;14.17;46.48
15678;BME280;7939;50.814;6.368;2023-04-25T10:46:02;99770.69;;;14.23;46.06
15678;BME280;7939;50.814;6.368;2023-04-25T10:48:30;99770.88;;;14.11;45.05
15678;BME280;7939;50.814;6.368;2023-04-25T10:51:07;99767.31;;;14.20;45.42
15678;BME280;7939;50.814;6.368;2023-04-25T10:53:35;99767.22;;;14.26;46.50
15678;BME280;7939;50.814;6.368;2023-04-25T10:56:10;99766.47;;;14.21;44.41
15678;BME280;7939;50.814;6.368;2023-04-25T10:58:42;99763.66;;;14.35;45.27
15678;BME280;7939;50.814;6.368;2023-04-25T11:01:08;99767.03;;;14.40;45.65
15678;BME280;7939;50.814;6.368;2023-04-25T11:03:38;99762.78;;;14.36;44.95
15678;BME280;7939;50.814;6.368;2023-04-25T11:06:15;99775.59;;;14.40;44.11
15678;BME280;7939;50.814;6.368;2023-04-25T11:08:48;99774.75;;;14.38;44.88
15678;BME280;7939;50.814;6.368;2023-04-25T11:11:16;99766.09;;;14.44;45.10
15678;BME280;7939;50.814;6.368;2023-04-25T11:13:44;99772.06;;;14.46;45.25
15678;BME280;7939;50.814;6.368;2023-04-25T11:16:10;99773.66;;;14.54;45.86
15678;BME280;7939;50.814;6.368;2023-04-25T11:18:37;99771.84;;;14.61;46.14
15678;BME280;7939;50.814;6.368;2023-04-25T11:21:04;99770.94;;;14.65;45.78
15678;BME280;7939;50.814;6.368;2023-04-25T11:23:31;99772.72;;;14.60;44.10
15678;BME280;7939;50.814;6.368;2023-04-25T11:25:57;99768.47;;;14.57;43.85
15678;BME280;7939;50.814;6.368;2023-04-25T11:28:27;99771.03;;;14.59;44.67
15678;BME280;7939;50.814;6.368;2023-04-25T11:30:53;99776.16;;;14.57;44.88
15678;BME280;7939;50.814;6.368;2023-04-25T11:33:23;99785.63;;;14.57;45.51
15678;BME280;7939;50.814;6.368;2023-04-25T11:35:50;99786.47;;;14.57;45.07
15678;BME280;7939;50.814;6.368;2023-04-25T11:38:18;99784.09;;;14.44;44.04
15678;BME280;7939;50.814;6.368;2023-04-25T11:40:49;99787.59;;;14.38;43.26
15678;BME280;7939;50.814;6.368;2023-04-25T11:43:17;99792.00;;;14.30;43.28
15678;BME280;7939;50.814;6.368;2023-04-25T11:45:47;99795.38;;;14.35;44.52
15678;BME280;7939;50.814;6.368;2023-04-25T11:48:14;99793.59;;;14.39;44.20
15678;BME280;7939;50.814;6.368;2023-04-25T11:50:41;99798.63;;;14.45;44.89
15678;BME280;7939;50.814;6.368;2023-04-25T11:53:08;99790.91;;;14.48;45.51
15678;BME280;7939;50.814;6.368;2023-04-25T11:55:35;99793.44;;;14.52;45.12
15678;BME280;7939;50.814;6.368;2023-04-25T11:58:03;99802.03;;;14.50;44.95
15678;BME280;7939;50.814;6.368;2023-04-25T12:00:31;99801.88;;;14.57;44.99
15678;BME280;7939;50.814;6.368;2023-04-25T12:02:59;99800.16;;;14.58;45.95
15678;BME280;7939;50.814;6.368;2023-04-25T12:05:28;99800.16;;;14.60;45.85
15678;BME280;7939;50.814;6.368;2023-04-25T12:07:55;99812.19;;;14.59;44.87
15678;BME280;7939;50.814;6.368;2023-04-25T12:10:21;99802.69;;;14.61;45.38
15678;BME280;7939;50.814;6.368;2023-04-25T12:12:50;99805.25;;;14.63;45.81
15678;BME280;7939;50.814;6.368;2023-04-25T12:15:18;99806.09;;;14.63;45.95
15678;BME280;7939;50.814;6.368;2023-04-25T12:17:50;99809.50;;;14.65;44.96
15678;BME280;7939;50.814;6.368;2023-04-25T12:20:21;99806.00;;;14.69;45.30
15678;BME280;7939;50.814;6.368;2023-04-25T12:22:51;99807.78;;;14.66;44.91
15678;BME280;7939;50.814;6.368;2023-04-25T12:25:35;99808.59;;;14.68;45.85
15678;BME280;7939;50.814;6.368;2023-04-25T12:28:13;99809.50;;;14.65;45.14
15678;BME280;7939;50.814;6.368;2023-04-25T12:30:57;99808.66;;;14.63;45.40
15678;BME280;7939;50.814;6.368;2023-04-25T12:33:26;99807.88;;;14.58;45.40
15678;BME280;7939;50.814;6.368;2023-04-25T12:35:54;99810.44;;;14.60;45.28
15678;BME280;7939;50.814;6.368;2023-04-25T12:38:25;99811.25;;;14.62;46.04
15678;BME280;7939;50.814;6.368;2023-04-25T12:40:52;99803.53;;;14.63;45.17
15678;BME280;7939;50.814;6.368;2023-04-25T12:43:19;99806.09;;;14.65;45.40
15678;BME280;7939;50.814;6.368;2023-04-25T12:45:47;99810.34;;;14.64;44.94
15678;BME280;7939;50.814;6.368;2023-04-25T12:48:14;99804.38;;;14.65;44.72
15678;BME280;7939;50.814;6.368;2023-04-25T12:50:41;99810.41;;;14.61;43.75
15678;BME280;7939;50.814;6.368;2023-04-25T12:53:09;99804.44;;;14.61;44.97
15678;BME280;7939;50.814;6.368;2023-04-25T12:55:35;99811.22;;;14.65;44.93
15678;BME280;7939;50.814;6.368;2023-04-25T12:58:02;99818.84;;;14.69;45.28
15678;BME280;7939;50.814;6.368;2023-04-25T13:00:29;99815.41;;;14.70;44.39
15678;BME280;7939;50.814;6.368;2023-04-25T13:02:56;99833.41;;;14.70;44.06
15678;BME280;7939;50.814;6.368;2023-04-25T13:05:23;99831.94;;;14.55;42.33
15678;BME280;7939;50.814;6.368;2023-04-25T13:07:50;99837.13;;;14.52;43.71
15678;BME280;7939;50.814;6.368;2023-04-25T13:10:18;99829.56;;;14.40;43.51
15678;BME280;7939;50.814;6.368;2023-04-25T13:12:44;99832.25;;;14.34;43.44